sensor_id;sensor_type;location;lat;lon;timestamp;P1;durP1;ratioP1;P2;durP2;ratioP2
13244;SDS011;6689;53.400;12.486;2023-02-20T00:01:18;7.53;;;1.98;;
13244;SDS011;6689;53.400;12.486;2023-02-20T00:03:47;5.57;;;2.10;;
13244;SDS011;6689;53.400;12.486;2023-02-20T00:06:15;5.28;;;2.05;;
13244;SDS011;6689;53.400;12.486;2023-02-20T00:08:42;6.38;;;2.45;;
13244;SDS011;6689;53.400;12.486;2023-02-20T00:11:09;6.65;;;2.00;;
13244;SDS011;6689;53.400;12.486;2023-02-20T00:13:37;6.93;;;1.95;;
13244;SDS011;6689;53.400;12.486;2023-02-20T00:16:04;4.93;;;1.88;;
13244;SDS011;6689;53.400;12.486;2023-02-20T00:18:33;7.68;;;2.85;;
13244;SDS011;6689;53.400;12.486;2023-02-20T00:21:01;10.93;;;2.90;;
13244;SDS011;6689;53.400;12.486;2023-02-20T00:23:31;7.03;;;2.65;;
13244;SDS011;6689;53.400;12.486;2023-02-20T00:25:58;6.07;;;2.03;;
13244;SDS011;6689;53.400;12.486;2023-02-20T00:28:26;5.90;;;2.95;;
13244;SDS011;6689;53.400;12.486;2023-02-20T00:30:54;5.78;;;1.90;;
13244;SDS011;6689;53.400;12.486;2023-02-20T00:33:21;5.95;;;2.30;;
13244;SDS011;6689;53.400;12.486;2023-02-20T00:35:48;6.53;;;2.08;;
13244;SDS011;6689;53.400;12.486;2023-02-20T00:38:17;9.05;;;2.22;;
13244;SDS011;6689;53.400;12.486;2023-02-20T00:40:44;5.45;;;2.10;;
13244;SDS011;6689;53.400;12.486;2023-02-20T00:43:12;7.38;;;2.17;;
13244;SDS011;6689;53.400;12.486;2023-02-20T00:45:39;10.48;;;2.05;;
13244;SDS011;6689;53.400;12.486;2023-02-20T00:48:07;5.57;;;2.42;;
13244;SDS011;6689;53.400;12.486;2023-02-20T00:50:34;6.13;;;2.88;;
13244;SDS011;6689;53.400;12.486;2023-02-20T00:53:02;7.43;;;2.55;;
13244;SDS011;6689;53.400;12.486;2023-02-20T00:55:31;8.73;;;2.03;;
13244;SDS011;6689;53.400;12.486;2023-02-20T00:57:58;3.88;;;2.00;;
13244;SDS011;6689;53.400;12.486;2023-02-20T01:00:27;9.10;;;2.50;;
13244;SDS011;6689;53.400;12.486;2023-02-20T01:02:56;6.72;;;2.50;;
13244;SDS011;6689;53.400;12.486;2023-02-20T01:05:23;9.25;;;2.53;;
13244;SDS011;6689;53.400;12.486;2023-02-20T01:07:50;7.38;;;2.28;;
13244;SDS011;6689;53.400;12.486;2023-02-20T01:10:18;11.63;;;2.70;;
13244;SDS011;6689;53.400;12.486;2023-02-20T01:12:47;4.35;;;1.90;;
13244;SDS011;6689;53.400;12.486;2023-02-20T01:15:15;8.70;;;2.45;;
13244;SDS011;6689;53.400;12.486;2023-02-20T01:17:42;7.85;;;2.90;;
13244;SDS011;6689;53.400;12.486;2023-02-20T01:20:09;12.90;;;3.10;;
13244;SDS011;6689;53.400;12.486;2023-02-20T01:22:37;8.07;;;2.75;;
13244;SDS011;6689;53.400;12.486;2023-02-20T01:25:05;8.95;;;3.08;;
13244;SDS011;6689;53.400;12.486;2023-02-20T01:27:33;6.75;;;2.30;;
13244;SDS011;6689;53.400;12.486;2023-02-20T01:30:02;10.30;;;3.15;;
13244;SDS011;6689;53.400;12.486;2023-02-20T01:32:29;4.65;;;2.45;;
13244;SDS011;6689;53.400;12.486;2023-02-20T01:34:57;7.15;;;2.80;;
13244;SDS011;6689;53.400;12.486;2023-02-20T01:37:24;8.50;;;3.17;;
13244;SDS011;6689;53.400;12.486;2023-02-20T01:39:52;8.25;;;3.42;;
13244;SDS011;6689;53.400;12.486;2023-02-20T01:42:20;6.25;;;3.00;;
13244;SDS011;6689;53.400;12.486;2023-02-20T01:44:49;6.22;;;3.03;;
13244;SDS011;6689;53.400;12.486;2023-02-20T01:47:18;7.95;;;3.25;;
13244;SDS011;6689;53.400;12.486;2023-02-20T01:49:47;9.85;;;3.20;;
13244;SDS011;6689;53.400;12.486;2023-02-20T01:52:18;5.95;;;3.55;;
13244;SDS011;6689;53.400;12.486;2023-02-20T01:54:50;7.00;;;2.13;;
13244;SDS011;6689;53.400;12.486;2023-02-20T01:57:22;6.18;;;3.10;;
13244;SDS011;6689;53.400;12.486;2023-02-20T01:59:52;5.60;;;3.08;;
13244;SDS011;6689;53.400;12.486;2023-02-20T02:02:26;4.13;;;3.10;;
13244;SDS011;6689;53.400;12.486;2023-02-20T02:04:56;7.50;;;3.50;;
13244;SDS011;6689;53.400;12.486;2023-02-20T02:07:24;6.00;;;3.08;;
13244;SDS011;6689;53.400;12.486;2023-02-20T02:09:52;5.57;;;3.22;;
13244;SDS011;6689;53.400;12.486;2023-02-20T02:12:24;7.15;;;3.10;;
13244;SDS011;6689;53.400;12.486;2023-02-20T02:14:51;6.78;;;3.35;;
13244;SDS011;6689;53.400;12.486;2023-02-20T02:17:28;6.00;;;3.15;;
13244;SDS011;6689;53.400;12.486;2023-02-20T02:20:25;6.35;;;3.60;;
13244;SDS011;6689;53.400;12.486;2023-02-20T02:23:36;7.38;;;3.10;;
13244;SDS011;6689;53.400;12.486;2023-02-20T02:26:45;5.22;;;3.40;;
13244;SDS011;6689;53.400;12.486;2023-02-20T02:29:52;5.00;;;2.88;;
13244;SDS011;6689;53.400;12.486;2023-02-20T02:32:57;6.63;;;3.47;;
13244;SDS011;6689;53.400;12.486;2023-02-20T02:38:43;8.75;;;4.00;;
13244;SDS011;6689;53.400;12.486;2023-02-20T02:41:19;5.50;;;3.60;;
13244;SDS011;6689;53.400;12.486;2023-02-20T02:43:49;7.00;;;4.03;;
13244;SDS011;6689;53.400;12.486;2023-02-20T02:46:24;9.48;;;4.20;;
13244;SDS011;6689;53.400;12.486;2023-02-20T02:48:57;7.00;;;4.35;;
13244;SDS011;6689;53.400;12.486;2023-02-20T02:51:31;7.10;;;4.30;;
13244;SDS011;6689;53.400;12.486;2023-02-20T02:54:05;6.32;;;4.30;;
13244;SDS011;6689;53.400;12.486;2023-02-20T02:56:34;8.13;;;5.50;;
13244;SDS011;6689;53.400;12.486;2023-02-20T02:59:01;8.82;;;4.03;;
13244;SDS011;6689;53.400;12.486;2023-02-20T03:01:30;6.95;;;4.35;;
13244;SDS011;6689;53.400;12.486;2023-02-20T03:04:03;8.30;;;4.88;;
13244;SDS011;6689;53.400;12.486;2023-02-20T03:06:35;6.93;;;4.65;;
13244;SDS011;6689;53.400;12.486;2023-02-20T03:09:08;7.07;;;4.50;;
13244;SDS011;6689;53.400;12.486;2023-02-20T03:11:39;8.05;;;4.75;;
13244;SDS011;6689;53.400;12.486;2023-02-20T03:14:08;7.35;;;4.63;;
13244;SDS011;6689;53.400;12.486;2023-02-20T03:16:57;8.00;;;5.20;;
13244;SDS011;6689;53.400;12.486;2023-02-20T03:19:30;6.93;;;4.20;;
13244;SDS011;6689;53.400;12.486;2023-02-20T03:22:04;7.70;;;4.85;;
13244;SDS011;6689;53.400;12.486;2023-02-20T03:24:36;7.82;;;5.15;;
13244;SDS011;6689;53.400;12.486;2023-02-20T03:27:20;6.15;;;4.32;;
13244;SDS011;6689;53.400;12.486;2023-02-20T03:29:49;7.90;;;5.20;;
13244;SDS011;6689;53.400;12.486;2023-02-20T03:32:21;7.00;;;5.03;;
13244;SDS011;6689;53.400;12.486;2023-02-20T03:35:09;6.63;;;4.75;;
13244;SDS011;6689;53.400;12.486;2023-02-20T03:37:57;7.60;;;5.32;;
13244;SDS011;6689;53.400;12.486;2023-02-20T03:40:45;8.65;;;5.15;;
13244;SDS011;6689;53.400;12.486;2023-02-20T03:46:01;7.55;;;5.28;;
13244;SDS011;6689;53.400;12.486;2023-02-20T03:48:32;8.73;;;4.50;;
13244;SDS011;6689;53.400;12.486;2023-02-20T03:51:05;10.43;;;5.88;;
13244;SDS011;6689;53.400;12.486;2023-02-20T03:53:34;10.30;;;5.63;;
13244;SDS011;6689;53.400;12.486;2023-02-20T03:56:03;7.18;;;4.97;;
13244;SDS011;6689;53.400;12.486;2023-02-20T03:58:35;6.28;;;4.78;;
13244;SDS011;6689;53.400;12.486;2023-02-20T04:01:06;8.02;;;5.50;;
13244;SDS011;6689;53.400;12.486;2023-02-20T04:03:36;12.27;;;6.05;;
13244;SDS011;6689;53.400;12.486;2023-02-20T04:06:07;9.68;;;5.00;;
13244;SDS011;6689;53.400;12.486;2023-02-20T04:08:40;9.35;;;6.07;;
13244;SDS011;6689;53.400;12.486;2023-02-20T04:11:12;8.55;;;5.53;;
13244;SDS011;6689;53.400;12.486;2023-02-20T04:13:47;8.02;;;4.97;;
13244;SDS011;6689;53.400;12.486;2023-02-20T04:16:17;7.50;;;5.20;;
13244;SDS011;6689;53.400;12.486;2023-02-20T04:18:45;7.90;;;4.88;;
13244;SDS011;6689;53.400;12.486;2023-02-20T04:21:15;7.35;;;4.90;;
13244;SDS011;6689;53.400;12.486;2023-02-20T04:23:51;8.60;;;5.45;;
13244;SDS011;6689;53.400;12.486;2023-02-20T04:26:28;10.30;;;5.75;;
13244;SDS011;6689;53.400;12.486;2023-02-20T04:28:56;7.78;;;4.85;;
13244;SDS011;6689;53.400;12.486;2023-02-20T04:31:23;7.53;;;5.03;;
13244;SDS011;6689;53.400;12.486;2023-02-20T04:33:51;9.10;;;5.85;;
13244;SDS011;6689;53.400;12.486;2023-02-20T04:36:18;7.13;;;5.22;;
13244;SDS011;6689;53.400;12.486;2023-02-20T04:38:46;8.82;;;5.10;;
13244;SDS011;6689;53.400;12.486;2023-02-20T04:41:15;10.95;;;6.47;;
13244;SDS011;6689;53.400;12.486;2023-02-20T04:43:43;11.82;;;6.00;;
13244;SDS011;6689;53.400;12.486;2023-02-20T04:46:10;7.63;;;5.60;;
13244;SDS011;6689;53.400;12.486;2023-02-20T04:48:37;10.45;;;5.75;;
13244;SDS011;6689;53.400;12.486;2023-02-20T04:51:04;11.27;;;6.03;;
13244;SDS011;6689;53.400;12.486;2023-02-20T04:53:32;9.07;;;6.20;;
13244;SDS011;6689;53.400;12.486;2023-02-20T04:56:01;8.10;;;5.78;;
13244;SDS011;6689;53.400;12.486;2023-02-20T04:58:29;10.13;;;5.97;;
13244;SDS011;6689;53.400;12.486;2023-02-20T05:01:01;8.68;;;6.32;;
13244;SDS011;6689;53.400;12.486;2023-02-20T05:03:28;8.38;;;6.18;;
13244;SDS011;6689;53.400;12.486;2023-02-20T05:05:56;10.35;;;6.20;;
13244;SDS011;6689;53.400;12.486;2023-02-20T05:08:23;8.20;;;6.47;;
13244;SDS011;6689;53.400;12.486;2023-02-20T05:10:50;8.45;;;6.18;;
13244;SDS011;6689;53.400;12.486;2023-02-20T05:13:19;9.15;;;6.13;;
13244;SDS011;6689;53.400;12.486;2023-02-20T05:15:46;7.60;;;5.65;;
13244;SDS011;6689;53.400;12.486;2023-02-20T05:18:14;8.98;;;6.32;;
13244;SDS011;6689;53.400;12.486;2023-02-20T05:20:50;11.35;;;6.47;;
13244;SDS011;6689;53.400;12.486;2023-02-20T05:23:37;10.48;;;6.78;;
13244;SDS011;6689;53.400;12.486;2023-02-20T05:26:07;10.02;;;7.13;;
13244;SDS011;6689;53.400;12.486;2023-02-20T05:28:36;9.02;;;6.25;;
13244;SDS011;6689;53.400;12.486;2023-02-20T05:31:04;10.73;;;7.05;;
13244;SDS011;6689;53.400;12.486;2023-02-20T05:33:31;12.50;;;6.68;;
13244;SDS011;6689;53.400;12.486;2023-02-20T05:35:58;9.02;;;6.10;;
13244;SDS011;6689;53.400;12.486;2023-02-20T05:38:26;11.65;;;6.93;;
13244;SDS011;6689;53.400;12.486;2023-02-20T05:40:53;11.32;;;7.47;;
13244;SDS011;6689;53.400;12.486;2023-02-20T05:43:21;9.75;;;7.82;;
13244;SDS011;6689;53.400;12.486;2023-02-20T05:45:49;11.57;;;7.97;;
13244;SDS011;6689;53.400;12.486;2023-02-20T05:48:17;10.15;;;7.35;;
13244;SDS011;6689;53.400;12.486;2023-02-20T05:50:44;11.18;;;7.60;;
13244;SDS011;6689;53.400;12.486;2023-02-20T05:53:14;12.07;;;7.50;;
13244;SDS011;6689;53.400;12.486;2023-02-20T05:55:42;10.10;;;7.85;;
13244;SDS011;6689;53.400;12.486;2023-02-20T05:58:09;18.65;;;7.05;;
13244;SDS011;6689;53.400;12.486;2023-02-20T06:00:37;7.13;;;5.90;;
13244;SDS011;6689;53.400;12.486;2023-02-20T06:03:07;12.43;;;7.72;;
13244;SDS011;6689;53.400;12.486;2023-02-20T06:05:35;11.13;;;7.72;;
13244;SDS011;6689;53.400;12.486;2023-02-20T06:08:03;8.13;;;6.22;;
13244;SDS011;6689;53.400;12.486;2023-02-20T06:10:30;9.38;;;6.72;;
13244;SDS011;6689;53.400;12.486;2023-02-20T06:12:58;10.40;;;7.03;;
13244;SDS011;6689;53.400;12.486;2023-02-20T06:15:26;10.18;;;7.80;;
13244;SDS011;6689;53.400;12.486;2023-02-20T06:17:53;11.75;;;7.75;;
13244;SDS011;6689;53.400;12.486;2023-02-20T06:20:22;9.95;;;7.22;;
13244;SDS011;6689;53.400;12.486;2023-02-20T06:22:49;10.32;;;7.20;;
13244;SDS011;6689;53.400;12.486;2023-02-20T06:25:17;7.05;;;5.93;;
13244;SDS011;6689;53.400;12.486;2023-02-20T06:27:44;9.65;;;6.70;;
13244;SDS011;6689;53.400;12.486;2023-02-20T06:30:12;9.50;;;6.38;;
13244;SDS011;6689;53.400;12.486;2023-02-20T06:32:40;11.10;;;7.50;;
13244;SDS011;6689;53.400;12.486;2023-02-20T06:35:07;10.00;;;6.63;;
13244;SDS011;6689;53.400;12.486;2023-02-20T06:37:36;11.05;;;7.53;;
13244;SDS011;6689;53.400;12.486;2023-02-20T06:40:07;9.90;;;7.40;;
13244;SDS011;6689;53.400;12.486;2023-02-20T06:42:35;9.32;;;6.53;;
13244;SDS011;6689;53.400;12.486;2023-02-20T06:45:03;10.48;;;7.90;;
13244;SDS011;6689;53.400;12.486;2023-02-20T06:47:31;9.20;;;6.63;;
13244;SDS011;6689;53.400;12.486;2023-02-20T06:49:58;9.75;;;6.88;;
13244;SDS011;6689;53.400;12.486;2023-02-20T06:52:26;11.52;;;8.63;;
13244;SDS011;6689;53.400;12.486;2023-02-20T06:54:55;10.98;;;7.10;;
13244;SDS011;6689;53.400;12.486;2023-02-20T06:57:23;11.32;;;7.63;;
13244;SDS011;6689;53.400;12.486;2023-02-20T06:59:50;12.68;;;7.80;;
13244;SDS011;6689;53.400;12.486;2023-02-20T07:02:18;12.82;;;7.60;;
13244;SDS011;6689;53.400;12.486;2023-02-20T07:04:46;10.63;;;7.40;;
13244;SDS011;6689;53.400;12.486;2023-02-20T07:07:14;10.25;;;7.65;;
13244;SDS011;6689;53.400;12.486;2023-02-20T07:09:42;11.68;;;7.97;;
13244;SDS011;6689;53.400;12.486;2023-02-20T07:12:14;12.88;;;7.32;;
13244;SDS011;6689;53.400;12.486;2023-02-20T07:14:42;12.18;;;7.72;;
13244;SDS011;6689;53.400;12.486;2023-02-20T07:17:09;10.63;;;7.38;;
13244;SDS011;6689;53.400;12.486;2023-02-20T07:19:37;12.73;;;8.20;;
13244;SDS011;6689;53.400;12.486;2023-02-20T07:22:04;12.38;;;8.20;;
13244;SDS011;6689;53.400;12.486;2023-02-20T07:24:31;12.65;;;8.30;;
13244;SDS011;6689;53.400;12.486;2023-02-20T07:27:01;9.60;;;7.90;;
13244;SDS011;6689;53.400;12.486;2023-02-20T07:29:30;10.45;;;7.28;;
13244;SDS011;6689;53.400;12.486;2023-02-20T07:31:57;10.77;;;7.95;;
13244;SDS011;6689;53.400;12.486;2023-02-20T07:34:24;11.60;;;8.40;;
13244;SDS011;6689;53.400;12.486;2023-02-20T07:36:52;11.45;;;8.30;;
13244;SDS011;6689;53.400;12.486;2023-02-20T07:39:19;20.10;;;9.70;;
13244;SDS011;6689;53.400;12.486;2023-02-20T07:41:49;14.05;;;8.55;;
13244;SDS011;6689;53.400;12.486;2023-02-20T07:44:16;15.07;;;8.30;;
13244;SDS011;6689;53.400;12.486;2023-02-20T07:46:46;12.95;;;8.70;;
13244;SDS011;6689;53.400;12.486;2023-02-20T07:49:13;12.80;;;8.40;;
13244;SDS011;6689;53.400;12.486;2023-02-20T07:51:40;12.98;;;8.73;;
13244;SDS011;6689;53.400;12.486;2023-02-20T07:54:07;15.07;;;9.20;;
13244;SDS011;6689;53.400;12.486;2023-02-20T07:56:35;11.98;;;8.57;;
13244;SDS011;6689;53.400;12.486;2023-02-20T07:59:02;13.63;;;8.00;;
13244;SDS011;6689;53.400;12.486;2023-02-20T08:01:31;14.18;;;9.27;;
13244;SDS011;6689;53.400;12.486;2023-02-20T08:04:00;13.90;;;8.35;;
13244;SDS011;6689;53.400;12.486;2023-02-20T08:06:27;14.07;;;8.88;;
13244;SDS011;6689;53.400;12.486;2023-02-20T08:08:55;12.57;;;8.75;;
13244;SDS011;6689;53.400;12.486;2023-02-20T08:11:22;13.27;;;9.25;;
13244;SDS011;6689;53.400;12.486;2023-02-20T08:13:50;14.77;;;9.90;;
13244;SDS011;6689;53.400;12.486;2023-02-20T08:16:19;13.30;;;8.70;;
13244;SDS011;6689;53.400;12.486;2023-02-20T08:18:47;12.43;;;7.72;;
13244;SDS011;6689;53.400;12.486;2023-02-20T08:21:16;13.93;;;8.95;;
13244;SDS011;6689;53.400;12.486;2023-02-20T08:23:44;14.75;;;9.27;;
13244;SDS011;6689;53.400;12.486;2023-02-20T08:26:11;12.85;;;9.50;;
13244;SDS011;6689;53.400;12.486;2023-02-20T08:28:39;15.15;;;9.27;;
13244;SDS011;6689;53.400;12.486;2023-02-20T08:31:06;15.57;;;9.00;;
13244;SDS011;6689;53.400;12.486;2023-02-20T08:33:34;12.88;;;8.88;;
13244;SDS011;6689;53.400;12.486;2023-02-20T08:36:01;14.50;;;9.30;;
13244;SDS011;6689;53.400;12.486;2023-02-20T08:38:30;16.67;;;9.85;;
13244;SDS011;6689;53.400;12.486;2023-02-20T08:41:01;14.45;;;10.38;;
13244;SDS011;6689;53.400;12.486;2023-02-20T08:43:29;15.45;;;9.48;;
13244;SDS011;6689;53.400;12.486;2023-02-20T08:46:00;12.18;;;9.02;;
13244;SDS011;6689;53.400;12.486;2023-02-20T08:48:27;13.95;;;9.32;;
13244;SDS011;6689;53.400;12.486;2023-02-20T08:50:55;16.52;;;9.48;;
13244;SDS011;6689;53.400;12.486;2023-02-20T08:53:22;12.15;;;9.23;;
13244;SDS011;6689;53.400;12.486;2023-02-20T08:55:51;14.30;;;10.15;;
13244;SDS011;6689;53.400;12.486;2023-02-20T08:58:18;13.32;;;9.57;;
13244;SDS011;6689;53.400;12.486;2023-02-20T09:00:47;13.40;;;8.60;;
13244;SDS011;6689;53.400;12.486;2023-02-20T09:03:15;14.35;;;9.88;;
13244;SDS011;6689;53.400;12.486;2023-02-20T09:05:42;14.52;;;9.50;;
13244;SDS011;6689;53.400;12.486;2023-02-20T09:08:10;15.60;;;10.48;;
13244;SDS011;6689;53.400;12.486;2023-02-20T09:10:37;13.10;;;9.43;;
13244;SDS011;6689;53.400;12.486;2023-02-20T09:13:08;14.57;;;9.55;;
13244;SDS011;6689;53.400;12.486;2023-02-20T09:15:36;13.50;;;10.25;;
13244;SDS011;6689;53.400;12.486;2023-02-20T09:18:04;14.30;;;10.55;;
13244;SDS011;6689;53.400;12.486;2023-02-20T09:20:33;17.27;;;10.23;;
13244;SDS011;6689;53.400;12.486;2023-02-20T09:23:02;13.70;;;9.90;;
13244;SDS011;6689;53.400;12.486;2023-02-20T09:25:30;12.20;;;9.82;;
13244;SDS011;6689;53.400;12.486;2023-02-20T09:27:58;10.70;;;8.68;;
13244;SDS011;6689;53.400;12.486;2023-02-20T09:30:27;15.82;;;9.95;;
13244;SDS011;6689;53.400;12.486;2023-02-20T09:32:54;15.88;;;9.55;;
13244;SDS011;6689;53.400;12.486;2023-02-20T09:35:23;11.77;;;9.02;;
13244;SDS011;6689;53.400;12.486;2023-02-20T09:37:52;13.38;;;10.30;;
13244;SDS011;6689;53.400;12.486;2023-02-20T09:40:20;16.60;;;10.27;;
13244;SDS011;6689;53.400;12.486;2023-02-20T09:42:53;14.93;;;10.15;;
13244;SDS011;6689;53.400;12.486;2023-02-20T09:45:39;15.02;;;10.38;;
13244;SDS011;6689;53.400;12.486;2023-02-20T09:48:16;14.90;;;10.45;;
13244;SDS011;6689;53.400;12.486;2023-02-20T09:50:53;13.32;;;8.75;;
13244;SDS011;6689;53.400;12.486;2023-02-20T09:53:25;14.48;;;11.13;;
13244;SDS011;6689;53.400;12.486;2023-02-20T09:55:58;13.10;;;7.65;;
13244;SDS011;6689;53.400;12.486;2023-02-20T09:58:27;14.80;;;10.20;;
13244;SDS011;6689;53.400;12.486;2023-02-20T10:01:05;15.85;;;10.98;;
13244;SDS011;6689;53.400;12.486;2023-02-20T10:03:34;11.30;;;7.55;;
13244;SDS011;6689;53.400;12.486;2023-02-20T10:06:08;15.80;;;10.98;;
13244;SDS011;6689;53.400;12.486;2023-02-20T10:08:41;15.80;;;10.68;;
13244;SDS011;6689;53.400;12.486;2023-02-20T10:11:10;17.35;;;12.15;;
13244;SDS011;6689;53.400;12.486;2023-02-20T10:13:47;13.13;;;9.60;;
13244;SDS011;6689;53.400;12.486;2023-02-20T10:16:27;13.95;;;10.65;;
13244;SDS011;6689;53.400;12.486;2023-02-20T10:19:02;18.75;;;11.18;;
13244;SDS011;6689;53.400;12.486;2023-02-20T10:21:41;18.95;;;11.55;;
13244;SDS011;6689;53.400;12.486;2023-02-20T10:24:17;14.77;;;11.27;;
13244;SDS011;6689;53.400;12.486;2023-02-20T10:26:54;19.52;;;11.70;;
13244;SDS011;6689;53.400;12.486;2023-02-20T10:29:30;16.60;;;11.23;;
13244;SDS011;6689;53.400;12.486;2023-02-20T10:32:03;16.75;;;12.45;;
13244;SDS011;6689;53.400;12.486;2023-02-20T10:34:36;16.25;;;11.32;;
13244;SDS011;6689;53.400;12.486;2023-02-20T10:37:07;18.25;;;11.50;;
13244;SDS011;6689;53.400;12.486;2023-02-20T10:39:39;17.27;;;11.73;;
13244;SDS011;6689;53.400;12.486;2023-02-20T10:42:18;17.55;;;11.43;;
13244;SDS011;6689;53.400;12.486;2023-02-20T10:44:56;15.65;;;11.95;;
13244;SDS011;6689;53.400;12.486;2023-02-20T10:47:29;16.98;;;11.63;;
13244;SDS011;6689;53.400;12.486;2023-02-20T10:50:07;17.27;;;11.60;;
13244;SDS011;6689;53.400;12.486;2023-02-20T10:52:38;18.48;;;11.82;;
13244;SDS011;6689;53.400;12.486;2023-02-20T10:55:12;20.55;;;13.05;;
13244;SDS011;6689;53.400;12.486;2023-02-20T10:57:43;16.00;;;11.75;;
13244;SDS011;6689;53.400;12.486;2023-02-20T11:00:16;14.68;;;11.07;;
13244;SDS011;6689;53.400;12.486;2023-02-20T11:02:56;18.02;;;12.25;;
13244;SDS011;6689;53.400;12.486;2023-02-20T11:05:31;14.95;;;11.57;;
13244;SDS011;6689;53.400;12.486;2023-02-20T11:08:06;16.23;;;10.85;;
13244;SDS011;6689;53.400;12.486;2023-02-20T11:10:33;15.80;;;9.65;;
13244;SDS011;6689;53.400;12.486;2023-02-20T11:13:03;12.98;;;10.38;;
13244;SDS011;6689;53.400;12.486;2023-02-20T11:15:34;15.90;;;11.15;;
13244;SDS011;6689;53.400;12.486;2023-02-20T11:18:04;15.00;;;10.95;;
13244;SDS011;6689;53.400;12.486;2023-02-20T11:20:42;15.10;;;11.38;;
13244;SDS011;6689;53.400;12.486;2023-02-20T11:29:04;14.95;;;10.45;;
13244;SDS011;6689;53.400;12.486;2023-02-20T11:31:36;16.63;;;10.52;;
13244;SDS011;6689;53.400;12.486;2023-02-20T11:34:11;15.10;;;11.85;;
13244;SDS011;6689;53.400;12.486;2023-02-20T11:36:44;14.70;;;11.45;;
13244;SDS011;6689;53.400;12.486;2023-02-20T11:39:18;14.50;;;10.60;;
13244;SDS011;6689;53.400;12.486;2023-02-20T11:41:49;17.00;;;11.95;;
13244;SDS011;6689;53.400;12.486;2023-02-20T11:44:29;16.67;;;12.10;;
13244;SDS011;6689;53.400;12.486;2023-02-20T11:47:07;14.40;;;9.90;;
13244;SDS011;6689;53.400;12.486;2023-02-20T11:49:55;14.60;;;10.57;;
13244;SDS011;6689;53.400;12.486;2023-02-20T11:52:36;14.95;;;10.93;;
13244;SDS011;6689;53.400;12.486;2023-02-20T11:55:11;15.82;;;9.88;;
13244;SDS011;6689;53.400;12.486;2023-02-20T11:57:47;14.07;;;10.38;;
13244;SDS011;6689;53.400;12.486;2023-02-20T12:00:16;12.88;;;9.65;;
13244;SDS011;6689;53.400;12.486;2023-02-20T12:02:52;13.27;;;10.27;;
13244;SDS011;6689;53.400;12.486;2023-02-20T12:05:39;12.00;;;9.77;;
13244;SDS011;6689;53.400;12.486;2023-02-20T12:08:22;13.38;;;9.48;;
13244;SDS011;6689;53.400;12.486;2023-02-20T12:11:00;13.68;;;9.10;;
13244;SDS011;6689;53.400;12.486;2023-02-20T12:13:34;12.38;;;9.05;;
13244;SDS011;6689;53.400;12.486;2023-02-20T12:16:07;13.90;;;8.60;;
13244;SDS011;6689;53.400;12.486;2023-02-20T12:18:48;12.50;;;9.70;;
13244;SDS011;6689;53.400;12.486;2023-02-20T12:21:32;12.60;;;8.95;;
13244;SDS011;6689;53.400;12.486;2023-02-20T12:24:08;11.10;;;8.45;;
13244;SDS011;6689;53.400;12.486;2023-02-20T12:26:52;12.68;;;8.63;;
13244;SDS011;6689;53.400;12.486;2023-02-20T12:29:28;14.82;;;9.00;;
13244;SDS011;6689;53.400;12.486;2023-02-20T12:32:21;12.15;;;8.50;;
13244;SDS011;6689;53.400;12.486;2023-02-20T12:35:03;12.30;;;8.90;;
13244;SDS011;6689;53.400;12.486;2023-02-20T12:37:59;9.82;;;7.53;;
13244;SDS011;6689;53.400;12.486;2023-02-20T12:40:52;12.23;;;8.65;;
13244;SDS011;6689;53.400;12.486;2023-02-20T12:43:35;12.68;;;9.45;;
13244;SDS011;6689;53.400;12.486;2023-02-20T12:46:10;12.63;;;8.20;;
13244;SDS011;6689;53.400;12.486;2023-02-20T12:48:45;13.85;;;10.35;;
13244;SDS011;6689;53.400;12.486;2023-02-20T12:51:27;10.65;;;8.40;;
13244;SDS011;6689;53.400;12.486;2023-02-20T12:54:11;12.70;;;9.52;;
13244;SDS011;6689;53.400;12.486;2023-02-20T12:56:53;16.40;;;10.55;;
13244;SDS011;6689;53.400;12.486;2023-02-20T12:59:30;13.13;;;9.65;;
13244;SDS011;6689;53.400;12.486;2023-02-20T13:02:01;14.75;;;10.32;;
13244;SDS011;6689;53.400;12.486;2023-02-20T13:04:42;16.20;;;11.32;;
13244;SDS011;6689;53.400;12.486;2023-02-20T13:07:13;15.65;;;10.63;;
13244;SDS011;6689;53.400;12.486;2023-02-20T13:09:53;14.85;;;10.77;;
13244;SDS011;6689;53.400;12.486;2023-02-20T13:12:25;15.65;;;10.18;;
13244;SDS011;6689;53.400;12.486;2023-02-20T13:14:54;14.43;;;10.90;;
13244;SDS011;6689;53.400;12.486;2023-02-20T13:17:35;18.65;;;11.57;;
13244;SDS011;6689;53.400;12.486;2023-02-20T13:20:13;18.20;;;11.25;;
13244;SDS011;6689;53.400;12.486;2023-02-20T13:22:43;15.25;;;10.68;;
13244;SDS011;6689;53.400;12.486;2023-02-20T13:25:36;14.63;;;12.40;;
13244;SDS011;6689;53.400;12.486;2023-02-20T13:28:25;16.90;;;11.70;;
13244;SDS011;6689;53.400;12.486;2023-02-20T13:31:20;17.73;;;10.82;;
13244;SDS011;6689;53.400;12.486;2023-02-20T13:33:49;17.88;;;10.52;;
13244;SDS011;6689;53.400;12.486;2023-02-20T13:36:41;18.45;;;11.27;;
13244;SDS011;6689;53.400;12.486;2023-02-20T13:42:26;17.10;;;11.60;;
13244;SDS011;6689;53.400;12.486;2023-02-20T13:44:58;18.77;;;11.63;;
13244;SDS011;6689;53.400;12.486;2023-02-20T13:47:27;20.35;;;10.15;;
13244;SDS011;6689;53.400;12.486;2023-02-20T13:52:59;19.17;;;11.63;;
13244;SDS011;6689;53.400;12.486;2023-02-20T13:55:30;17.42;;;11.90;;
13244;SDS011;6689;53.400;12.486;2023-02-20T13:58:04;15.75;;;11.93;;
13244;SDS011;6689;53.400;12.486;2023-02-20T14:00:44;20.55;;;12.65;;
13244;SDS011;6689;53.400;12.486;2023-02-20T14:03:17;18.00;;;12.00;;
13244;SDS011;6689;53.400;12.486;2023-02-20T14:05:59;21.08;;;11.77;;
13244;SDS011;6689;53.400;12.486;2023-02-20T14:08:28;18.50;;;11.35;;
13244;SDS011;6689;53.400;12.486;2023-02-20T14:11:02;23.15;;;12.30;;
13244;SDS011;6689;53.400;12.486;2023-02-20T14:13:32;19.10;;;10.98;;
13244;SDS011;6689;53.400;12.486;2023-02-20T14:16:01;20.02;;;12.98;;
13244;SDS011;6689;53.400;12.486;2023-02-20T14:18:45;22.95;;;12.63;;
13244;SDS011;6689;53.400;12.486;2023-02-20T14:21:14;18.83;;;11.98;;
13244;SDS011;6689;53.400;12.486;2023-02-20T14:23:43;21.30;;;12.52;;
13244;SDS011;6689;53.400;12.486;2023-02-20T14:26:17;17.27;;;11.40;;
13244;SDS011;6689;53.400;12.486;2023-02-20T14:28:47;19.30;;;12.02;;
13244;SDS011;6689;53.400;12.486;2023-02-20T14:31:21;20.90;;;11.65;;
13244;SDS011;6689;53.400;12.486;2023-02-20T14:33:50;18.10;;;11.13;;
13244;SDS011;6689;53.400;12.486;2023-02-20T14:36:39;16.38;;;11.30;;
13244;SDS011;6689;53.400;12.486;2023-02-20T14:39:26;18.17;;;10.10;;
13244;SDS011;6689;53.400;12.486;2023-02-20T14:42:12;17.13;;;11.88;;
13244;SDS011;6689;53.400;12.486;2023-02-20T14:44:42;21.90;;;11.82;;
13244;SDS011;6689;53.400;12.486;2023-02-20T14:47:14;17.27;;;11.60;;
13244;SDS011;6689;53.400;12.486;2023-02-20T14:49:43;14.63;;;10.48;;
13244;SDS011;6689;53.400;12.486;2023-02-20T14:52:15;16.88;;;9.65;;
13244;SDS011;6689;53.400;12.486;2023-02-20T14:54:54;14.68;;;10.45;;
13244;SDS011;6689;53.400;12.486;2023-02-20T14:57:22;17.45;;;10.52;;
13244;SDS011;6689;53.400;12.486;2023-02-20T14:59:52;14.68;;;9.45;;
13244;SDS011;6689;53.400;12.486;2023-02-20T15:02:36;15.25;;;9.30;;
13244;SDS011;6689;53.400;12.486;2023-02-20T15:05:08;17.77;;;8.93;;
13244;SDS011;6689;53.400;12.486;2023-02-20T15:07:42;16.90;;;8.35;;
13244;SDS011;6689;53.400;12.486;2023-02-20T15:10:26;14.60;;;7.97;;
13244;SDS011;6689;53.400;12.486;2023-02-20T15:13:01;15.75;;;8.25;;
13244;SDS011;6689;53.400;12.486;2023-02-20T15:15:37;17.92;;;9.15;;
13244;SDS011;6689;53.400;12.486;2023-02-20T15:18:08;13.10;;;7.90;;
13244;SDS011;6689;53.400;12.486;2023-02-20T15:20:39;11.15;;;8.45;;
13244;SDS011;6689;53.400;12.486;2023-02-20T15:23:08;10.30;;;6.43;;